sensor_id;sensor_type;location;lat;lon;timestamp;P1;durP1;ratioP1;P2;durP2;ratioP2
7479;SDS011;3781;42.272;22.658;2023-11-19T00:01:11;0.10;;;0.10;;
7479;SDS011;3781;42.272;22.658;2023-11-19T00:03:38;1.90;;;0.60;;
7479;SDS011;3781;42.272;22.658;2023-11-19T00:06:05;0.10;;;0.10;;
7479;SDS011;3781;42.272;22.658;2023-11-19T00:08:32;0.53;;;0.37;;
7479;SDS011;3781;42.272;22.658;2023-11-19T00:10:59;0.10;;;0.10;;
7479;SDS011;3781;42.272;22.658;2023-11-19T00:13:26;0.80;;;0.50;;
7479;SDS011;3781;42.272;22.658;2023-11-19T00:15:54;0.50;;;0.50;;
7479;SDS011;3781;42.272;22.658;2023-11-19T00:18:21;0.73;;;0.73;;
7479;SDS011;3781;42.272;22.658;2023-11-19T00:20:48;0.20;;;0.10;;
7479;SDS011;3781;42.272;22.658;2023-11-19T00:23:15;0.60;;;0.60;;
7479;SDS011;3781;42.272;22.658;2023-11-19T00:25:42;0.50;;;0.50;;
7479;SDS011;3781;42.272;22.658;2023-11-19T00:28:09;0.20;;;0.20;;
7479;SDS011;3781;42.272;22.658;2023-11-19T00:30:36;0.30;;;0.30;;
7479;SDS011;3781;42.272;22.658;2023-11-19T00:33:04;1.10;;;0.60;;
7479;SDS011;3781;42.272;22.658;2023-11-19T00:35:31;0.10;;;0.10;;
7479;SDS011;3781;42.272;22.658;2023-11-19T00:37:58;1.23;;;0.30;;
7479;SDS011;3781;42.272;22.658;2023-11-19T00:40:25;0.30;;;0.30;;
7479;SDS011;3781;42.272;22.658;2023-11-19T00:42:52;0.10;;;0.10;;
7479;SDS011;3781;42.272;22.658;2023-11-19T00:45:19;0.17;;;0.17;;
7479;SDS011;3781;42.272;22.658;2023-11-19T00:47:46;0.17;;;0.17;;
7479;SDS011;3781;42.272;22.658;2023-11-19T00:50:14;1.23;;;0.57;;
7479;SDS011;3781;42.272;22.658;2023-11-19T00:52:42;0.30;;;0.30;;
7479;SDS011;3781;42.272;22.658;2023-11-19T00:55:09;0.17;;;0.17;;
7479;SDS011;3781;42.272;22.658;2023-11-19T00:57:36;0.07;;;0.07;;
7479;SDS011;3781;42.272;22.658;2023-11-19T01:00:04;0.00;;;0.00;;
7479;SDS011;3781;42.272;22.658;2023-11-19T01:02:40;0.50;;;0.50;;
7479;SDS011;3781;42.272;22.658;2023-11-19T01:05:07;0.50;;;0.37;;
7479;SDS011;3781;42.272;22.658;2023-11-19T01:07:36;0.53;;;0.47;;
7479;SDS011;3781;42.272;22.658;2023-11-19T01:10:05;0.00;;;0.00;;
7479;SDS011;3781;42.272;22.658;2023-11-19T01:12:32;0.30;;;0.30;;
7479;SDS011;3781;42.272;22.658;2023-11-19T01:14:59;0.20;;;0.20;;
7479;SDS011;3781;42.272;22.658;2023-11-19T01:17:26;0.50;;;0.50;;
7479;SDS011;3781;42.272;22.658;2023-11-19T01:19:53;0.10;;;0.10;;
7479;SDS011;3781;42.272;22.658;2023-11-19T01:22:20;0.17;;;0.17;;
7479;SDS011;3781;42.272;22.658;2023-11-19T01:24:48;0.20;;;0.20;;
7479;SDS011;3781;42.272;22.658;2023-11-19T01:27:17;0.10;;;0.10;;
7479;SDS011;3781;42.272;22.658;2023-11-19T01:29:44;0.30;;;0.30;;
7479;SDS011;3781;42.272;22.658;2023-11-19T01:32:10;0.10;;;0.10;;
7479;SDS011;3781;42.272;22.658;2023-11-19T01:34:37;0.30;;;0.20;;
7479;SDS011;3781;42.272;22.658;2023-11-19T01:37:04;0.53;;;0.33;;
7479;SDS011;3781;42.272;22.658;2023-11-19T01:39:31;0.27;;;0.23;;
7479;SDS011;3781;42.272;22.658;2023-11-19T01:41:59;2.27;;;0.20;;
7479;SDS011;3781;42.272;22.658;2023-11-19T01:44:26;0.10;;;0.10;;
7479;SDS011;3781;42.272;22.658;2023-11-19T01:46:53;0.57;;;0.33;;
7479;SDS011;3781;42.272;22.658;2023-11-19T01:49:20;0.20;;;0.20;;
7479;SDS011;3781;42.272;22.658;2023-11-19T01:51:47;0.00;;;0.00;;
7479;SDS011;3781;42.272;22.658;2023-11-19T01:54:14;0.20;;;0.20;;
7479;SDS011;3781;42.272;22.658;2023-11-19T01:56:41;0.30;;;0.20;;
7479;SDS011;3781;42.272;22.658;2023-11-19T01:59:11;0.23;;;0.23;;
7479;SDS011;3781;42.272;22.658;2023-11-19T02:01:39;0.30;;;0.27;;
7479;SDS011;3781;42.272;22.658;2023-11-19T02:04:07;0.60;;;0.43;;
7479;SDS011;3781;42.272;22.658;2023-11-19T02:06:34;0.70;;;0.50;;
7479;SDS011;3781;42.272;22.658;2023-11-19T02:09:04;0.30;;;0.30;;
7479;SDS011;3781;42.272;22.658;2023-11-19T02:11:32;0.43;;;0.43;;
7479;SDS011;3781;42.272;22.658;2023-11-19T02:14:00;0.30;;;0.30;;
7479;SDS011;3781;42.272;22.658;2023-11-19T02:16:29;1.03;;;0.30;;
7479;SDS011;3781;42.272;22.658;2023-11-19T02:18:56;0.40;;;0.23;;
7479;SDS011;3781;42.272;22.658;2023-11-19T02:21:23;0.17;;;0.17;;
7479;SDS011;3781;42.272;22.658;2023-11-19T02:23:50;0.67;;;0.67;;
7479;SDS011;3781;42.272;22.658;2023-11-19T02:26:18;2.20;;;1.50;;
7479;SDS011;3781;42.272;22.658;2023-11-19T02:28:54;2.03;;;1.07;;
7479;SDS011;3781;42.272;22.658;2023-11-19T02:31:21;0.57;;;0.40;;
7479;SDS011;3781;42.272;22.658;2023-11-19T02:33:49;0.47;;;0.47;;
7479;SDS011;3781;42.272;22.658;2023-11-19T02:36:17;0.40;;;0.40;;
7479;SDS011;3781;42.272;22.658;2023-11-19T02:38:43;2.67;;;0.77;;
7479;SDS011;3781;42.272;22.658;2023-11-19T02:41:11;0.73;;;0.73;;
7479;SDS011;3781;42.272;22.658;2023-11-19T02:43:38;0.10;;;0.10;;
7479;SDS011;3781;42.272;22.658;2023-11-19T02:46:06;0.10;;;0.10;;
7479;SDS011;3781;42.272;22.658;2023-11-19T02:48:33;0.10;;;0.10;;
7479;SDS011;3781;42.272;22.658;2023-11-19T02:51:01;0.73;;;0.47;;
7479;SDS011;3781;42.272;22.658;2023-11-19T02:53:29;0.10;;;0.10;;
7479;SDS011;3781;42.272;22.658;2023-11-19T02:55:56;0.73;;;0.60;;
7479;SDS011;3781;42.272;22.658;2023-11-19T02:58:27;0.37;;;0.37;;
7479;SDS011;3781;42.272;22.658;2023-11-19T03:00:54;0.30;;;0.30;;
7479;SDS011;3781;42.272;22.658;2023-11-19T03:03:26;0.30;;;0.30;;
7479;SDS011;3781;42.272;22.658;2023-11-19T03:06:03;0.10;;;0.10;;
7479;SDS011;3781;42.272;22.658;2023-11-19T03:08:31;0.40;;;0.40;;
7479;SDS011;3781;42.272;22.658;2023-11-19T03:10:58;0.83;;;0.20;;
7479;SDS011;3781;42.272;22.658;2023-11-19T03:13:25;0.10;;;0.10;;
7479;SDS011;3781;42.272;22.658;2023-11-19T03:15:52;0.20;;;0.20;;
7479;SDS011;3781;42.272;22.658;2023-11-19T03:18:19;0.13;;;0.07;;
7479;SDS011;3781;42.272;22.658;2023-11-19T03:20:47;0.20;;;0.17;;
7479;SDS011;3781;42.272;22.658;2023-11-19T03:23:14;0.17;;;0.17;;
7479;SDS011;3781;42.272;22.658;2023-11-19T03:25:41;0.00;;;0.00;;
7479;SDS011;3781;42.272;22.658;2023-11-19T03:28:08;0.00;;;0.00;;
7479;SDS011;3781;42.272;22.658;2023-11-19T03:30:36;0.10;;;0.10;;
7479;SDS011;3781;42.272;22.658;2023-11-19T03:33:04;0.20;;;0.20;;
7479;SDS011;3781;42.272;22.658;2023-11-19T03:35:31;0.27;;;0.27;;
7479;SDS011;3781;42.272;22.658;2023-11-19T03:38:00;0.17;;;0.10;;
7479;SDS011;3781;42.272;22.658;2023-11-19T03:40:27;0.57;;;0.57;;
7479;SDS011;3781;42.272;22.658;2023-11-19T03:42:55;0.30;;;0.23;;
7479;SDS011;3781;42.272;22.658;2023-11-19T03:45:21;0.00;;;0.00;;
7479;SDS011;3781;42.272;22.658;2023-11-19T03:47:48;0.07;;;0.03;;
7479;SDS011;3781;42.272;22.658;2023-11-19T03:50:15;0.93;;;0.77;;
7479;SDS011;3781;42.272;22.658;2023-11-19T03:52:43;0.10;;;0.10;;
7479;SDS011;3781;42.272;22.658;2023-11-19T03:55:11;0.20;;;0.20;;
7479;SDS011;3781;42.272;22.658;2023-11-19T03:57:38;0.00;;;0.00;;
7479;SDS011;3781;42.272;22.658;2023-11-19T04:00:07;0.77;;;0.77;;
7479;SDS011;3781;42.272;22.658;2023-11-19T04:02:35;0.10;;;0.10;;
7479;SDS011;3781;42.272;22.658;2023-11-19T04:05:02;0.30;;;0.30;;
7479;SDS011;3781;42.272;22.658;2023-11-19T04:07:30;1.27;;;0.53;;
7479;SDS011;3781;42.272;22.658;2023-11-19T04:09:57;0.60;;;0.60;;
7479;SDS011;3781;42.272;22.658;2023-11-19T04:12:26;0.00;;;0.00;;
7479;SDS011;3781;42.272;22.658;2023-11-19T04:14:52;0.30;;;0.30;;
7479;SDS011;3781;42.272;22.658;2023-11-19T04:17:19;3.40;;;0.80;;
7479;SDS011;3781;42.272;22.658;2023-11-19T04:19:46;0.40;;;0.40;;
7479;SDS011;3781;42.272;22.658;2023-11-19T04:22:13;0.37;;;0.30;;
7479;SDS011;3781;42.272;22.658;2023-11-19T04:24:40;0.10;;;0.10;;
7479;SDS011;3781;42.272;22.658;2023-11-19T04:27:09;1.10;;;0.83;;
7479;SDS011;3781;42.272;22.658;2023-11-19T04:29:37;0.80;;;0.80;;
7479;SDS011;3781;42.272;22.658;2023-11-19T04:32:04;0.93;;;0.60;;
7479;SDS011;3781;42.272;22.658;2023-11-19T04:34:32;0.20;;;0.20;;
7479;SDS011;3781;42.272;22.658;2023-11-19T04:36:59;1.23;;;0.87;;
7479;SDS011;3781;42.272;22.658;2023-11-19T04:39:28;0.30;;;0.30;;
7479;SDS011;3781;42.272;22.658;2023-11-19T04:41:55;0.40;;;0.40;;
7479;SDS011;3781;42.272;22.658;2023-11-19T04:44:22;0.30;;;0.30;;
7479;SDS011;3781;42.272;22.658;2023-11-19T04:46:51;0.10;;;0.10;;
7479;SDS011;3781;42.272;22.658;2023-11-19T04:49:17;0.17;;;0.17;;
7479;SDS011;3781;42.272;22.658;2023-11-19T04:51:45;0.27;;;0.27;;
7479;SDS011;3781;42.272;22.658;2023-11-19T04:54:12;0.73;;;0.63;;
7479;SDS011;3781;42.272;22.658;2023-11-19T04:56:39;0.67;;;0.67;;
7479;SDS011;3781;42.272;22.658;2023-11-19T04:59:06;0.30;;;0.30;;
7479;SDS011;3781;42.272;22.658;2023-11-19T05:01:34;1.43;;;0.83;;
7479;SDS011;3781;42.272;22.658;2023-11-19T05:04:01;1.03;;;0.27;;
7479;SDS011;3781;42.272;22.658;2023-11-19T05:06:28;0.50;;;0.50;;
7479;SDS011;3781;42.272;22.658;2023-11-19T05:08:55;0.20;;;0.20;;
7479;SDS011;3781;42.272;22.658;2023-11-19T05:11:23;2.33;;;0.40;;
7479;SDS011;3781;42.272;22.658;2023-11-19T05:13:49;0.67;;;0.60;;
7479;SDS011;3781;42.272;22.658;2023-11-19T05:16:16;0.93;;;0.93;;
7479;SDS011;3781;42.272;22.658;2023-11-19T05:18:44;3.63;;;1.03;;
7479;SDS011;3781;42.272;22.658;2023-11-19T05:21:11;1.97;;;0.30;;
7479;SDS011;3781;42.272;22.658;2023-11-19T05:23:38;1.87;;;1.77;;
7479;SDS011;3781;42.272;22.658;2023-11-19T05:26:07;2.83;;;1.53;;
7479;SDS011;3781;42.272;22.658;2023-11-19T05:28:33;0.80;;;0.70;;
7479;SDS011;3781;42.272;22.658;2023-11-19T05:31:00;2.17;;;0.87;;
7479;SDS011;3781;42.272;22.658;2023-11-19T05:33:28;2.83;;;1.13;;
7479;SDS011;3781;42.272;22.658;2023-11-19T05:35:55;1.60;;;1.13;;
7479;SDS011;3781;42.272;22.658;2023-11-19T05:38:23;0.97;;;0.73;;
7479;SDS011;3781;42.272;22.658;2023-11-19T05:40:50;0.40;;;0.40;;
7479;SDS011;3781;42.272;22.658;2023-11-19T05:43:17;1.53;;;1.43;;
7479;SDS011;3781;42.272;22.658;2023-11-19T05:45:44;0.20;;;0.20;;
7479;SDS011;3781;42.272;22.658;2023-11-19T05:48:10;0.23;;;0.23;;
7479;SDS011;3781;42.272;22.658;2023-11-19T05:50:38;0.30;;;0.30;;
7479;SDS011;3781;42.272;22.658;2023-11-19T05:53:04;1.80;;;0.80;;
7479;SDS011;3781;42.272;22.658;2023-11-19T05:55:36;0.57;;;0.57;;
7479;SDS011;3781;42.272;22.658;2023-11-19T05:58:10;0.93;;;0.90;;
7479;SDS011;3781;42.272;22.658;2023-11-19T06:00:38;2.33;;;0.77;;
7479;SDS011;3781;42.272;22.658;2023-11-19T06:03:05;2.50;;;1.53;;
7479;SDS011;3781;42.272;22.658;2023-11-19T06:05:33;3.40;;;1.27;;
7479;SDS011;3781;42.272;22.658;2023-11-19T06:08:00;1.77;;;1.67;;
7479;SDS011;3781;42.272;22.658;2023-11-19T06:10:27;1.47;;;1.33;;
7479;SDS011;3781;42.272;22.658;2023-11-19T06:12:57;0.63;;;0.40;;
7479;SDS011;3781;42.272;22.658;2023-11-19T06:15:24;0.40;;;0.27;;
7479;SDS011;3781;42.272;22.658;2023-11-19T06:17:51;0.20;;;0.20;;
7479;SDS011;3781;42.272;22.658;2023-11-19T06:20:18;0.30;;;0.30;;
7479;SDS011;3781;42.272;22.658;2023-11-19T06:22:46;2.47;;;1.30;;
7479;SDS011;3781;42.272;22.658;2023-11-19T06:25:13;0.23;;;0.23;;
7479;SDS011;3781;42.272;22.658;2023-11-19T06:27:41;1.10;;;0.83;;
7479;SDS011;3781;42.272;22.658;2023-11-19T06:30:10;3.07;;;1.60;;
7479;SDS011;3781;42.272;22.658;2023-11-19T06:32:37;1.50;;;1.40;;
7479;SDS011;3781;42.272;22.658;2023-11-19T06:35:05;3.57;;;1.43;;
7479;SDS011;3781;42.272;22.658;2023-11-19T06:37:32;0.40;;;0.40;;
7479;SDS011;3781;42.272;22.658;2023-11-19T06:39:59;1.67;;;1.47;;
7479;SDS011;3781;42.272;22.658;2023-11-19T06:42:26;1.97;;;1.20;;
7479;SDS011;3781;42.272;22.658;2023-11-19T06:44:53;0.10;;;0.10;;
7479;SDS011;3781;42.272;22.658;2023-11-19T06:47:24;0.73;;;0.73;;
7479;SDS011;3781;42.272;22.658;2023-11-19T06:49:52;1.03;;;0.97;;
7479;SDS011;3781;42.272;22.658;2023-11-19T06:52:19;1.20;;;1.10;;
7479;SDS011;3781;42.272;22.658;2023-11-19T06:54:45;0.47;;;0.47;;
7479;SDS011;3781;42.272;22.658;2023-11-19T06:57:13;0.77;;;0.77;;
7479;SDS011;3781;42.272;22.658;2023-11-19T06:59:40;4.77;;;2.80;;
7479;SDS011;3781;42.272;22.658;2023-11-19T07:02:07;17.90;;;6.47;;
7479;SDS011;3781;42.272;22.658;2023-11-19T07:04:35;4.37;;;3.37;;
7479;SDS011;3781;42.272;22.658;2023-11-19T07:07:02;6.97;;;2.73;;
7479;SDS011;3781;42.272;22.658;2023-11-19T07:09:30;3.30;;;2.20;;
7479;SDS011;3781;42.272;22.658;2023-11-19T07:11:57;3.87;;;2.30;;
7479;SDS011;3781;42.272;22.658;2023-11-19T07:14:25;5.50;;;1.93;;
7479;SDS011;3781;42.272;22.658;2023-11-19T07:16:52;1.90;;;1.23;;
7479;SDS011;3781;42.272;22.658;2023-11-19T07:19:18;1.47;;;0.93;;
7479;SDS011;3781;42.272;22.658;2023-11-19T07:21:47;3.40;;;2.53;;
7479;SDS011;3781;42.272;22.658;2023-11-19T07:24:14;6.63;;;3.03;;
7479;SDS011;3781;42.272;22.658;2023-11-19T07:26:42;7.63;;;4.43;;
7479;SDS011;3781;42.272;22.658;2023-11-19T07:29:09;1.50;;;1.37;;
7479;SDS011;3781;42.272;22.658;2023-11-19T07:31:36;2.00;;;1.90;;
7479;SDS011;3781;42.272;22.658;2023-11-19T07:34:03;1.63;;;1.53;;
7479;SDS011;3781;42.272;22.658;2023-11-19T07:36:31;2.37;;;2.03;;
7479;SDS011;3781;42.272;22.658;2023-11-19T07:39:00;2.13;;;1.30;;
7479;SDS011;3781;42.272;22.658;2023-11-19T07:41:27;2.97;;;2.67;;
7479;SDS011;3781;42.272;22.658;2023-11-19T07:43:54;2.37;;;2.00;;
7479;SDS011;3781;42.272;22.658;2023-11-19T07:46:21;2.57;;;2.27;;
7479;SDS011;3781;42.272;22.658;2023-11-19T07:48:48;3.27;;;1.53;;
7479;SDS011;3781;42.272;22.658;2023-11-19T07:51:15;2.47;;;1.90;;
7479;SDS011;3781;42.272;22.658;2023-11-19T07:53:42;1.80;;;1.23;;
7479;SDS011;3781;42.272;22.658;2023-11-19T07:56:10;2.20;;;1.43;;
7479;SDS011;3781;42.272;22.658;2023-11-19T07:58:37;2.80;;;2.43;;
7479;SDS011;3781;42.272;22.658;2023-11-19T08:01:05;2.40;;;1.47;;
7479;SDS011;3781;42.272;22.658;2023-11-19T08:03:32;6.73;;;2.70;;
7479;SDS011;3781;42.272;22.658;2023-11-19T08:06:00;6.30;;;3.27;;
7479;SDS011;3781;42.272;22.658;2023-11-19T08:08:27;2.30;;;2.00;;
7479;SDS011;3781;42.272;22.658;2023-11-19T08:10:55;4.67;;;1.97;;
7479;SDS011;3781;42.272;22.658;2023-11-19T08:13:24;2.90;;;2.40;;
7479;SDS011;3781;42.272;22.658;2023-11-19T08:15:51;3.70;;;1.93;;
7479;SDS011;3781;42.272;22.658;2023-11-19T08:18:18;1.87;;;1.50;;
7479;SDS011;3781;42.272;22.658;2023-11-19T08:20:45;1.13;;;0.83;;
7479;SDS011;3781;42.272;22.658;2023-11-19T08:23:17;1.80;;;1.40;;
7479;SDS011;3781;42.272;22.658;2023-11-19T08:25:44;0.73;;;0.40;;
7479;SDS011;3781;42.272;22.658;2023-11-19T08:28:11;0.40;;;0.40;;
7479;SDS011;3781;42.272;22.658;2023-11-19T08:30:40;0.10;;;0.10;;
7479;SDS011;3781;42.272;22.658;2023-11-19T08:33:06;0.50;;;0.50;;
7479;SDS011;3781;42.272;22.658;2023-11-19T08:35:33;0.23;;;0.23;;
7479;SDS011;3781;42.272;22.658;2023-11-19T08:38:00;1.43;;;0.80;;
7479;SDS011;3781;42.272;22.658;2023-11-19T08:40:27;1.67;;;0.90;;
7479;SDS011;3781;42.272;22.658;2023-11-19T08:42:54;3.80;;;2.60;;
7479;SDS011;3781;42.272;22.658;2023-11-19T08:45:21;9.13;;;4.57;;
7479;SDS011;3781;42.272;22.658;2023-11-19T08:47:50;5.10;;;4.03;;
7479;SDS011;3781;42.272;22.658;2023-11-19T08:50:17;13.07;;;2.40;;
7479;SDS011;3781;42.272;22.658;2023-11-19T08:52:43;2.90;;;1.90;;
7479;SDS011;3781;42.272;22.658;2023-11-19T08:55:10;3.47;;;2.70;;
7479;SDS011;3781;42.272;22.658;2023-11-19T08:57:38;0.87;;;0.50;;
7479;SDS011;3781;42.272;22.658;2023-11-19T09:00:06;1.30;;;1.20;;
7479;SDS011;3781;42.272;22.658;2023-11-19T09:02:33;1.37;;;1.27;;
7479;SDS011;3781;42.272;22.658;2023-11-19T09:05:03;2.93;;;1.50;;
7479;SDS011;3781;42.272;22.658;2023-11-19T09:07:32;2.20;;;1.00;;
7479;SDS011;3781;42.272;22.658;2023-11-19T09:09:59;1.67;;;1.57;;
7479;SDS011;3781;42.272;22.658;2023-11-19T09:12:26;1.37;;;0.83;;
7479;SDS011;3781;42.272;22.658;2023-11-19T09:14:53;2.07;;;1.87;;
7479;SDS011;3781;42.272;22.658;2023-11-19T09:17:19;0.50;;;0.50;;
7479;SDS011;3781;42.272;22.658;2023-11-19T09:19:46;1.30;;;1.20;;
7479;SDS011;3781;42.272;22.658;2023-11-19T09:22:14;4.20;;;1.97;;
7479;SDS011;3781;42.272;22.658;2023-11-19T09:24:41;2.37;;;1.53;;
7479;SDS011;3781;42.272;22.658;2023-11-19T09:27:09;1.70;;;1.10;;
7479;SDS011;3781;42.272;22.658;2023-11-19T09:29:36;0.50;;;0.50;;
7479;SDS011;3781;42.272;22.658;2023-11-19T09:32:03;1.33;;;1.23;;
7479;SDS011;3781;42.272;22.658;2023-11-19T09:34:31;0.43;;;0.23;;
7479;SDS011;3781;42.272;22.658;2023-11-19T09:36:58;1.33;;;0.70;;
7479;SDS011;3781;42.272;22.658;2023-11-19T09:39:26;2.57;;;0.90;;
7479;SDS011;3781;42.272;22.658;2023-11-19T09:41:54;0.73;;;0.73;;
7479;SDS011;3781;42.272;22.658;2023-11-19T09:44:21;0.90;;;0.90;;
7479;SDS011;3781;42.272;22.658;2023-11-19T09:46:47;4.10;;;1.83;;
7479;SDS011;3781;42.272;22.658;2023-11-19T09:49:14;4.00;;;2.00;;
7479;SDS011;3781;42.272;22.658;2023-11-19T09:51:46;1.50;;;1.23;;
7479;SDS011;3781;42.272;22.658;2023-11-19T09:54:13;1.27;;;0.90;;
7479;SDS011;3781;42.272;22.658;2023-11-19T09:56:40;0.97;;;0.97;;
7479;SDS011;3781;42.272;22.658;2023-11-19T09:59:08;2.00;;;1.77;;
7479;SDS011;3781;42.272;22.658;2023-11-19T10:01:36;2.23;;;2.00;;
7479;SDS011;3781;42.272;22.658;2023-11-19T10:04:04;1.33;;;1.10;;
7479;SDS011;3781;42.272;22.658;2023-11-19T10:06:32;2.33;;;0.90;;
7479;SDS011;3781;42.272;22.658;2023-11-19T10:08:59;2.07;;;1.23;;
7479;SDS011;3781;42.272;22.658;2023-11-19T10:11:26;1.37;;;1.27;;
7479;SDS011;3781;42.272;22.658;2023-11-19T10:13:54;2.53;;;1.40;;
7479;SDS011;3781;42.272;22.658;2023-11-19T10:16:27;3.93;;;2.37;;
7479;SDS011;3781;42.272;22.658;2023-11-19T10:18:55;0.87;;;0.87;;
7479;SDS011;3781;42.272;22.658;2023-11-19T10:21:22;1.67;;;1.13;;
7479;SDS011;3781;42.272;22.658;2023-11-19T10:23:51;1.80;;;1.23;;
7479;SDS011;3781;42.272;22.658;2023-11-19T10:26:19;1.87;;;1.67;;
7479;SDS011;3781;42.272;22.658;2023-11-19T10:28:46;2.40;;;1.60;;
7479;SDS011;3781;42.272;22.658;2023-11-19T10:31:15;1.13;;;1.03;;
7479;SDS011;3781;42.272;22.658;2023-11-19T10:33:43;2.63;;;1.23;;
7479;SDS011;3781;42.272;22.658;2023-11-19T10:36:11;1.43;;;1.23;;
7479;SDS011;3781;42.272;22.658;2023-11-19T10:38:38;1.97;;;0.83;;
7479;SDS011;3781;42.272;22.658;2023-11-19T10:41:05;0.60;;;0.60;;
7479;SDS011;3781;42.272;22.658;2023-11-19T10:43:42;1.77;;;1.50;;
7479;SDS011;3781;42.272;22.658;2023-11-19T10:46:10;1.00;;;1.00;;
7479;SDS011;3781;42.272;22.658;2023-11-19T10:48:39;8.83;;;2.90;;
7479;SDS011;3781;42.272;22.658;2023-11-19T10:51:07;2.47;;;1.40;;
7479;SDS011;3781;42.272;22.658;2023-11-19T10:53:36;2.97;;;2.13;;
7479;SDS011;3781;42.272;22.658;2023-11-19T10:56:04;3.30;;;2.00;;
7479;SDS011;3781;42.272;22.658;2023-11-19T10:58:35;2.30;;;1.10;;
7479;SDS011;3781;42.272;22.658;2023-11-19T11:01:07;5.70;;;2.67;;
7479;SDS011;3781;42.272;22.658;2023-11-19T11:03:40;6.17;;;3.80;;
7479;SDS011;3781;42.272;22.658;2023-11-19T11:06:08;2.37;;;1.93;;
7479;SDS011;3781;42.272;22.658;2023-11-19T11:08:36;2.70;;;2.20;;
7479;SDS011;3781;42.272;22.658;2023-11-19T11:11:04;9.23;;;2.20;;
7479;SDS011;3781;42.272;22.658;2023-11-19T11:13:32;3.53;;;2.53;;
7479;SDS011;3781;42.272;22.658;2023-11-19T11:16:00;2.33;;;2.13;;
7479;SDS011;3781;42.272;22.658;2023-11-19T11:18:29;3.63;;;2.67;;
7479;SDS011;3781;42.272;22.658;2023-11-19T11:21:00;2.60;;;1.33;;
7479;SDS011;3781;42.272;22.658;2023-11-19T11:26:40;2.37;;;1.10;;
7479;SDS011;3781;42.272;22.658;2023-11-19T11:29:20;0.90;;;0.90;;
7479;SDS011;3781;42.272;22.658;2023-11-19T11:31:56;1.30;;;1.20;;
7479;SDS011;3781;42.272;22.658;2023-11-19T11:34:42;2.63;;;1.50;;
7479;SDS011;3781;42.272;22.658;2023-11-19T11:37:25;1.23;;;1.13;;
7479;SDS011;3781;42.272;22.658;2023-11-19T11:39:57;3.97;;;3.67;;
7479;SDS011;3781;42.272;22.658;2023-11-19T11:42:31;1.07;;;1.03;;
7479;SDS011;3781;42.272;22.658;2023-11-19T11:45:02;2.13;;;1.37;;
7479;SDS011;3781;42.272;22.658;2023-11-19T11:50:47;1.00;;;1.00;;
7479;SDS011;3781;42.272;22.658;2023-11-19T11:53:18;1.10;;;1.00;;
7479;SDS011;3781;42.272;22.658;2023-11-19T11:55:54;4.03;;;1.97;;
7479;SDS011;3781;42.272;22.658;2023-11-19T11:58:35;2.13;;;1.50;;
7479;SDS011;3781;42.272;22.658;2023-11-19T12:01:04;0.93;;;0.57;;
7479;SDS011;3781;42.272;22.658;2023-11-19T12:03:36;1.00;;;1.00;;
7479;SDS011;3781;42.272;22.658;2023-11-19T12:06:09;2.40;;;1.67;;
7479;SDS011;3781;42.272;22.658;2023-11-19T12:08:39;1.50;;;1.20;;
7479;SDS011;3781;42.272;22.658;2023-11-19T12:11:07;3.20;;;1.23;;
7479;SDS011;3781;42.272;22.658;2023-11-19T12:13:47;2.37;;;1.37;;
7479;SDS011;3781;42.272;22.658;2023-11-19T12:16:20;1.33;;;1.20;;
7479;SDS011;3781;42.272;22.658;2023-11-19T12:18:47;1.10;;;0.63;;
7479;SDS011;3781;42.272;22.658;2023-11-19T12:21:28;1.10;;;1.00;;
7479;SDS011;3781;42.272;22.658;2023-11-19T12:23:58;0.60;;;0.60;;
7479;SDS011;3781;42.272;22.658;2023-11-19T12:26:33;0.73;;;0.73;;
7479;SDS011;3781;42.272;22.658;2023-11-19T12:29:01;1.40;;;1.30;;
7479;SDS011;3781;42.272;22.658;2023-11-19T12:31:31;3.93;;;1.00;;
7479;SDS011;3781;42.272;22.658;2023-11-19T12:34:04;0.30;;;0.30;;
7479;SDS011;3781;42.272;22.658;2023-11-19T12:36:33;1.00;;;0.70;;
7479;SDS011;3781;42.272;22.658;2023-11-19T12:39:02;1.30;;;1.20;;
7479;SDS011;3781;42.272;22.658;2023-11-19T12:41:29;3.23;;;2.13;;
7479;SDS011;3781;42.272;22.658;2023-11-19T12:44:08;3.73;;;3.37;;
7479;SDS011;3781;42.272;22.658;2023-11-19T12:46:36;4.10;;;2.53;;
7479;SDS011;3781;42.272;22.658;2023-11-19T12:49:03;2.33;;;2.03;;
7479;SDS011;3781;42.272;22.658;2023-11-19T12:51:31;2.67;;;2.40;;
7479;SDS011;3781;42.272;22.658;2023-11-19T12:53:58;4.37;;;2.43;;
7479;SDS011;3781;42.272;22.658;2023-11-19T12:56:27;1.30;;;1.23;;
7479;SDS011;3781;42.272;22.658;2023-11-19T12:58:55;1.70;;;1.23;;
7479;SDS011;3781;42.272;22.658;2023-11-19T13:01:22;0.63;;;0.50;;
7479;SDS011;3781;42.272;22.658;2023-11-19T13:03:49;2.33;;;0.77;;
7479;SDS011;3781;42.272;22.658;2023-11-19T13:06:16;0.70;;;0.70;;
7479;SDS011;3781;42.272;22.658;2023-11-19T13:08:47;2.63;;;2.00;;
7479;SDS011;3781;42.272;22.658;2023-11-19T13:11:31;1.10;;;0.97;;
7479;SDS011;3781;42.272;22.658;2023-11-19T13:13:59;0.80;;;0.80;;
7479;SDS011;3781;42.272;22.658;2023-11-19T13:16:29;1.70;;;1.60;;
7479;SDS011;3781;42.272;22.658;2023-11-19T13:18:57;4.63;;;2.63;;
7479;SDS011;3781;42.272;22.658;2023-11-19T13:21:25;2.67;;;2.43;;
7479;SDS011;3781;42.272;22.658;2023-11-19T13:23:52;4.53;;;2.73;;
7479;SDS011;3781;42.272;22.658;2023-11-19T13:26:20;4.70;;;2.90;;
7479;SDS011;3781;42.272;22.658;2023-11-19T13:28:48;11.90;;;5.23;;
7479;SDS011;3781;42.272;22.658;2023-11-19T13:31:15;4.10;;;2.80;;
7479;SDS011;3781;42.272;22.658;2023-11-19T13:33:42;6.90;;;3.03;;
7479;SDS011;3781;42.272;22.658;2023-11-19T13:36:10;12.33;;;5.70;;
7479;SDS011;3781;42.272;22.658;2023-11-19T13:38:37;4.30;;;3.90;;
7479;SDS011;3781;42.272;22.658;2023-11-19T13:41:06;4.73;;;2.93;;
7479;SDS011;3781;42.272;22.658;2023-11-19T13:43:34;6.57;;;3.03;;
7479;SDS011;3781;42.272;22.658;2023-11-19T13:46:03;2.93;;;2.07;;
7479;SDS011;3781;42.272;22.658;2023-11-19T13:48:31;3.97;;;2.57;;
7479;SDS011;3781;42.272;22.658;2023-11-19T13:50:58;3.30;;;2.00;;
7479;SDS011;3781;42.272;22.658;2023-11-19T13:53:25;9.53;;;4.40;;
7479;SDS011;3781;42.272;22.658;2023-11-19T13:55:52;9.10;;;3.97;;
7479;SDS011;3781;42.272;22.658;2023-11-19T13:58:19;6.60;;;4.30;;
7479;SDS011;3781;42.272;22.658;2023-11-19T14:00:46;7.63;;;4.90;;
7479;SDS011;3781;42.272;22.658;2023-11-19T14:03:15;17.67;;;8.30;;
7479;SDS011;3781;42.272;22.658;2023-11-19T14:05:42;12.67;;;6.13;;
7479;SDS011;3781;42.272;22.658;2023-11-19T14:08:10;12.10;;;5.73;;
7479;SDS011;3781;42.272;22.658;2023-11-19T14:10:38;9.57;;;5.43;;
7479;SDS011;3781;42.272;22.658;2023-11-19T14:13:05;8.87;;;4.93;;
7479;SDS011;3781;42.272;22.658;2023-11-19T14:15:34;7.73;;;4.70;;
7479;SDS011;3781;42.272;22.658;2023-11-19T14:18:01;35.20;;;11.93;;
7479;SDS011;3781;42.272;22.658;2023-11-19T14:20:30;14.47;;;7.50;;
7479;SDS011;3781;42.272;22.658;2023-11-19T14:22:58;8.77;;;4.83;;
7479;SDS011;3781;42.272;22.658;2023-11-19T14:25:25;7.77;;;5.10;;
7479;SDS011;3781;42.272;22.658;2023-11-19T14:27:52;2.70;;;2.33;;
7479;SDS011;3781;42.272;22.658;2023-11-19T14:30:19;1.57;;;1.47;;
7479;SDS011;3781;42.272;22.658;2023-11-19T14:32:47;1.30;;;1.13;;
7479;SDS011;3781;42.272;22.658;2023-11-19T14:35:15;1.90;;;1.20;;
7479;SDS011;3781;42.272;22.658;2023-11-19T14:37:43;2.60;;;1.43;;
7479;SDS011;3781;42.272;22.658;2023-11-19T14:40:11;4.47;;;1.90;;
7479;SDS011;3781;42.272;22.658;2023-11-19T14:42:38;8.00;;;4.53;;
7479;SDS011;3781;42.272;22.658;2023-11-19T14:45:06;6.13;;;4.83;;
7479;SDS011;3781;42.272;22.658;2023-11-19T14:47:37;16.80;;;7.40;;
7479;SDS011;3781;42.272;22.658;2023-11-19T14:50:04;7.13;;;3.30;;
7479;SDS011;3781;42.272;22.658;2023-11-19T14:52:32;5.50;;;2.93;;
7479;SDS011;3781;42.272;22.658;2023-11-19T14:55:02;4.63;;;2.23;;
7479;SDS011;3781;42.272;22.658;2023-11-19T14:57:29;4.07;;;3.63;;
7479;SDS011;3781;42.272;22.658;2023-11-19T14:59:57;11.80;;;4.43;;
7479;SDS011;3781;42.272;22.658;2023-11-19T15:02:24;1.47;;;1.37;;
7479;SDS011;3781;42.272;22.658;2023-11-19T15:04:51;4.27;;;1.63;;
7479;SDS011;3781;42.272;22.658;2023-11-19T15:07:19;4.93;;;1.83;;
7479;SDS011;3781;42.272;22.658;2023-11-19T15:09:46;2.23;;;1.13;;
7479;SDS011;3781;42.272;22.658;2023-11-19T15:12:14;3.50;;;2.03;;